Time;durP1;ratioP1;P1;durP2;ratioP2;P2;SDS_P1;SDS_P2;PMS_P1;PMS_P2;Temp;Humidity;BMP_temperature;BMP_pressure;BME280_temperature;BME280_humidity;BME280_pressure;Samples;Min_cycle;Max_cycle;Signal;HPM_P1;HPM_P2
2022/01/23 00:01:45;;;;;;;11.40;7.93;;;5.90;99.90;;;;;;5076948;28;20679;-67
2022/01/23 00:04:11;;;;;;;12.80;9.07;;;5.90;99.90;;;;;;5076555;28;20223;-67
2022/01/23 00:06:40;;;;;;;11.88;8.43;;;6.00;99.90;;;;;;5076759;28;20202;-67
2022/01/23 00:09:06;;;;;;;12.95;7.90;;;6.00;99.90;;;;;;5076467;28;20203;-67
2022/01/23 00:11:39;;;;;;;11.38;7.90;;;6.00;99.90;;;;;;5076943;28;20210;-67
2022/01/23 00:19:34;;;;;;;16.35;9.98;;;6.00;99.90;;;;;;5076887;28;20209;-67
2022/01/23 00:22:03;;;;;;;16.55;10.73;;;6.00;99.90;;;;;;5076091;28;20223;-67
2022/01/23 00:32:42;;;;;;;11.20;7.28;;;5.80;99.90;;;;;;5076370;28;20202;-67
2022/01/23 00:35:09;;;;;;;10.40;7.85;;;5.90;99.90;;;;;;5076641;28;20202;-67
2022/01/23 00:37:37;;;;;;;10.38;7.38;;;6.00;99.90;;;;;;5075891;28;20217;-67
2022/01/23 00:40:05;;;;;;;10.32;7.65;;;5.90;99.90;;;;;;5075938;28;20206;-67
2022/01/23 00:42:33;;;;;;;11.30;7.68;;;5.90;99.90;;;;;;5076099;28;20234;-67
2022/01/23 00:45:12;;;;;;;10.85;7.75;;;5.90;99.90;;;;;;5076244;28;20714;-67
2022/01/23 00:47:39;;;;;;;10.30;6.68;;;6.00;99.90;;;;;;5076354;28;20293;-67
2022/01/23 00:50:06;;;;;;;8.90;7.03;;;6.10;99.90;;;;;;5075800;28;20205;-67
2022/01/23 00:52:33;;;;;;;10.02;7.03;;;6.10;99.90;;;;;;5075865;28;20221;-67
2022/01/23 00:55:04;;;;;;;9.57;7.50;;;6.10;99.90;;;;;;5075813;28;20687;-67
2022/01/23 00:57:33;;;;;;;9.43;6.70;;;6.10;99.90;;;;;;5076041;28;20209;-67
2022/01/23 01:00:00;;;;;;;10.82;7.22;;;6.20;99.90;;;;;;5075829;28;20221;-67
2022/01/23 01:02:27;;;;;;;10.05;7.18;;;6.20;99.90;;;;;;5075511;28;20236;-67
2022/01/23 01:04:53;;;;;;;9.32;6.78;;;6.20;99.90;;;;;;5075916;28;20718;-67
2022/01/23 01:07:20;;;;;;;10.30;7.15;;;6.20;99.90;;;;;;5075841;28;20581;-67
2022/01/23 01:09:50;;;;;;;9.93;7.32;;;6.10;99.90;;;;;;5075450;28;20203;-67
2022/01/23 01:12:21;;;;;;;9.50;6.55;;;5.90;99.90;;;;;;5075874;28;20226;-67
2022/01/23 01:17:42;;;;;;;8.55;6.70;;;6.00;99.90;;;;;;5065683;28;20198;-67
2022/01/23 01:31:21;;;;;;;9.75;6.95;;;6.30;99.90;;;;;;5074888;28;20296;-67
2022/01/23 01:33:52;;;;;;;10.38;7.00;;;6.10;99.90;;;;;;5074864;28;20229;-67
2022/01/23 01:36:25;;;;;;;8.98;7.25;;;6.10;99.90;;;;;;5075038;28;20209;-67
2022/01/23 01:38:53;;;;;;;9.57;7.28;;;5.90;99.90;;;;;;5074794;28;20672;-67
2022/01/23 01:41:21;;;;;;;9.25;6.45;;;5.70;99.90;;;;;;5075058;28;20206;-67
2022/01/23 01:43:51;;;;;;;12.40;7.10;;;5.70;99.90;;;;;;5075233;28;20309;-67
2022/01/23 01:46:18;;;;;;;10.13;7.00;;;5.80;99.90;;;;;;5074875;28;20278;-67
2022/01/23 01:48:45;;;;;;;12.45;8.05;;;5.80;99.90;;;;;;5074881;28;20298;-67
2022/01/23 01:51:15;;;;;;;12.98;8.25;;;5.60;99.90;;;;;;5074914;28;20215;-67
2022/01/23 01:53:47;;;;;;;11.45;7.80;;;5.60;99.90;;;;;;5074580;28;20230;-67
2022/01/23 01:56:14;;;;;;;11.25;7.47;;;5.80;99.90;;;;;;5075265;28;20514;-67
2022/01/23 01:59:13;;;;;;;12.10;7.45;;;5.90;99.90;;;;;;5074600;28;20607;-67
2022/01/23 02:09:56;;;;;;;12.45;8.55;;;5.50;99.90;;;;;;5074463;28;20202;-67
2022/01/23 02:12:57;;;;;;;13.52;9.57;;;5.70;99.90;;;;;;5074717;28;20660;-67
2022/01/23 02:18:22;;;;;;;15.35;9.88;;;5.80;99.90;;;;;;5074455;28;20747;-67
2022/01/23 02:24:09;;;;;;;14.30;10.60;;;5.90;99.90;;;;;;5012456;28;20726;-67
2022/01/23 02:51:44;;;;;;;20.17;12.38;;;6.30;99.90;;;;;;5073805;28;20568;-67
2022/01/23 02:54:41;;;;;;;20.55;13.02;;;6.10;99.90;;;;;;5074227;28;20248;-67
2022/01/23 02:57:09;;;;;;;17.65;11.50;;;5.80;99.90;;;;;;5074041;28;20198;-67
2022/01/23 02:59:38;;;;;;;17.95;12.13;;;5.90;99.90;;;;;;5074120;28;20207;-67
2022/01/23 03:02:12;;;;;;;17.35;12.15;;;5.80;99.90;;;;;;5073829;28;20656;-67
2022/01/23 03:04:41;;;;;;;19.65;13.48;;;5.60;99.90;;;;;;5074247;28;20218;-67
2022/01/23 03:07:17;;;;;;;19.73;13.75;;;5.40;99.90;;;;;;5074264;28;20321;-67
2022/01/23 03:10:00;;;;;;;19.67;13.48;;;5.50;99.90;;;;;;5073667;28;20603;-67
2022/01/23 03:15:18;;;;;;;22.65;12.93;;;5.60;99.90;;;;;;5074160;28;20630;-67
2022/01/23 03:29:18;;;;;;;17.67;11.75;;;5.80;99.90;;;;;;5012170;28;20197;-67
2022/01/23 03:31:59;;;;;;;18.48;12.43;;;5.90;99.90;;;;;;5068525;28;20206;-67
2022/01/23 03:34:27;;;;;;;21.98;13.25;;;5.70;99.90;;;;;;5077548;28;20630;-68
2022/01/23 03:36:55;;;;;;;26.38;15.05;;;5.50;99.90;;;;;;5078061;28;20234;-68
2022/01/23 03:39:22;;;;;;;25.33;15.70;;;5.30;99.90;;;;;;5077687;28;20210;-67
2022/01/23 03:41:50;;;;;;;22.90;14.30;;;5.10;99.90;;;;;;5077332;28;20324;-67
2022/01/23 03:44:17;;;;;;;23.33;14.52;;;5.10;99.90;;;;;;5077577;28;20755;-67
2022/01/23 03:47:01;;;;;;;21.90;14.10;;;5.10;99.90;;;;;;5077589;28;20210;-67
2022/01/23 03:49:31;;;;;;;24.67;15.13;;;5.00;99.90;;;;;;5077440;28;20198;-67
2022/01/23 03:51:59;;;;;;;22.63;13.60;;;5.00;99.90;;;;;;5076720;28;20206;-67
2022/01/23 03:54:26;;;;;;;19.42;12.60;;;5.20;99.90;;;;;;5077470;28;20235;-67
2022/01/23 03:56:55;;;;;;;20.00;12.68;;;5.30;99.90;;;;;;5077290;28;20206;-67
2022/01/23 03:59:22;;;;;;;20.17;12.27;;;5.40;99.90;;;;;;5077413;28;20205;-68
2022/01/23 04:01:49;;;;;;;19.75;12.68;;;5.60;99.90;;;;;;5077291;28;20715;-67
2022/01/23 04:04:27;;;;;;;19.10;12.32;;;5.70;99.90;;;;;;5078265;28;20226;-67
2022/01/23 04:06:54;;;;;;;28.55;15.38;;;5.50;99.90;;;;;;5078718;28;20202;-67
2022/01/23 04:09:21;;;;;;;23.15;14.57;;;5.40;99.90;;;;;;5077312;28;20230;-67
2022/01/23 04:11:48;;;;;;;22.17;14.40;;;5.60;99.90;;;;;;5077446;28;20285;-67
2022/01/23 04:14:18;;;;;;;19.75;12.93;;;5.70;99.90;;;;;;5077437;28;20218;-67
2022/01/23 04:19:54;;;;;;;16.77;11.95;;;5.70;99.90;;;;;;5040541;28;20281;-67
2022/01/23 04:33:43;;;;;;;18.25;12.20;;;6.00;99.90;;;;;;5076359;28;20221;-67
2022/01/23 04:48:13;;;;;;;20.08;12.73;;;6.10;99.90;;;;;;5076018;28;20206;-67
2022/01/23 05:01:18;;;;;;;20.80;13.25;;;6.10;99.90;;;;;;5075708;28;20206;-67
2022/01/23 05:04:07;;;;;;;22.27;13.68;;;5.80;99.90;;;;;;5075439;28;20318;-67
2022/01/23 05:06:41;;;;;;;21.00;13.13;;;5.60;99.90;;;;;;5075874;28;20316;-67
2022/01/23 05:09:09;;;;;;;24.92;14.80;;;5.40;99.90;;;;;;5076024;28;20204;-67
2022/01/23 05:11:37;;;;;;;24.73;15.35;;;5.50;99.90;;;;;;5075747;28;20207;-67
2022/01/23 05:14:05;;;;;;;21.33;14.70;;;5.60;99.90;;;;;;5075335;28;20221;-67
2022/01/23 05:16:32;;;;;;;21.85;14.20;;;5.60;99.90;;;;;;5076273;28;20252;-67
2022/01/23 05:19:03;;;;;;;25.45;15.02;;;5.50;99.90;;;;;;5075582;28;20248;-67
2022/01/23 05:24:21;;;;;;;23.95;14.90;;;5.10;99.90;;;;;;5070322;28;20235;-67
2022/01/23 05:26:48;;;;;;;25.67;15.65;;;4.90;99.90;;;;;;5075314;28;20268;-67
2022/01/23 05:29:15;;;;;;;24.60;14.98;;;4.80;99.90;;;;;;5075452;28;20213;-67
2022/01/23 05:31:43;;;;;;;25.05;15.98;;;4.70;99.90;;;;;;5075496;28;20230;-67
2022/01/23 05:34:11;;;;;;;25.73;16.95;;;4.70;99.90;;;;;;5075744;28;20240;-67
2022/01/23 05:36:38;;;;;;;24.70;15.40;;;4.60;99.90;;;;;;5075438;28;20735;-67
2022/01/23 05:39:05;;;;;;;24.40;14.85;;;4.70;99.90;;;;;;5075538;28;20605;-67
2022/01/23 05:41:33;;;;;;;24.58;14.30;;;4.90;99.90;;;;;;5074761;28;20609;-67
2022/01/23 05:44:00;;;;;;;20.42;14.18;;;5.10;99.90;;;;;;5074780;28;20227;-67
2022/01/23 05:46:27;;;;;;;22.75;15.20;;;5.30;99.90;;;;;;5075155;28;20207;-67
2022/01/23 05:48:54;;;;;;;24.35;15.13;;;5.30;99.90;;;;;;5074966;28;20671;-67
2022/01/23 05:51:22;;;;;;;22.92;14.77;;;5.40;99.90;;;;;;5075098;28;20388;-67
2022/01/23 05:53:50;;;;;;;24.10;14.55;;;5.50;99.90;;;;;;5074850;28;20218;-68
2022/01/23 05:56:17;;;;;;;24.27;14.45;;;5.60;99.90;;;;;;5074110;28;20621;-67
2022/01/23 05:58:44;;;;;;;22.48;14.25;;;5.60;99.90;;;;;;5074815;28;20206;-67
2022/01/23 06:01:11;;;;;;;23.52;16.20;;;5.60;99.90;;;;;;5074445;28;20695;-67
2022/01/23 06:03:38;;;;;;;23.02;14.80;;;5.60;99.90;;;;;;5074848;28;20253;-67
2022/01/23 06:06:05;;;;;;;23.85;15.13;;;5.60;99.90;;;;;;5075184;28;20289;-67
2022/01/23 06:08:33;;;;;;;23.30;16.35;;;5.70;99.90;;;;;;5074413;28;20209;-67
2022/01/23 06:11:00;;;;;;;24.17;15.10;;;5.60;99.90;;;;;;5074667;28;20297;-67
2022/01/23 06:13:28;;;;;;;25.73;15.75;;;5.60;99.90;;;;;;5074747;28;20218;-67
2022/01/23 06:15:56;;;;;;;24.00;15.20;;;5.60;99.90;;;;;;5074535;28;20237;-67
2022/01/23 06:18:23;;;;;;;24.02;15.68;;;5.60;99.90;;;;;;5074678;28;20202;-67
2022/01/23 06:20:49;;;;;;;23.25;15.43;;;5.50;99.90;;;;;;5074130;28;20568;-67
2022/01/23 06:23:17;;;;;;;24.55;15.75;;;5.50;99.90;;;;;;5074178;28;20732;-67
2022/01/23 06:25:47;;;;;;;22.50;14.75;;;5.40;99.90;;;;;;5074262;28;20202;-67
2022/01/23 06:28:29;;;;;;;23.00;15.40;;;5.50;99.90;;;;;;5074280;28;20203;-67
2022/01/23 06:30:56;;;;;;;23.75;15.75;;;5.60;99.90;;;;;;5073827;28;20210;-67
2022/01/23 06:33:22;;;;;;;24.33;15.95;;;5.70;99.90;;;;;;5074202;28;20215;-67
2022/01/23 06:35:49;;;;;;;27.30;16.15;;;5.70;99.90;;;;;;5073991;28;20548;-67
2022/01/23 06:38:16;;;;;;;25.05;17.05;;;5.70;99.90;;;;;;5074115;28;20209;-67
2022/01/23 06:40:44;;;;;;;29.40;17.92;;;5.50;99.90;;;;;;5073911;28;20207;-67
2022/01/23 06:43:11;;;;;;;33.63;19.17;;;5.30;99.90;;;;;;5074276;28;20237;-67
2022/01/23 06:45:38;;;;;;;31.90;18.63;;;5.20;99.90;;;;;;5074686;28;20229;-67
2022/01/23 06:48:05;;;;;;;31.92;18.60;;;5.10;99.90;;;;;;5074459;28;20214;-67
2022/01/23 06:50:32;;;;;;;30.00;18.10;;;5.00;99.90;;;;;;5074399;28;20202;-67
2022/01/23 06:52:59;;;;;;;30.65;18.25;;;5.00;99.90;;;;;;5074132;28;20219;-67
2022/01/23 06:55:26;;;;;;;30.33;17.05;;;5.00;99.90;;;;;;5074371;28;20214;-67
2022/01/23 06:57:54;;;;;;;29.10;16.95;;;5.00;99.90;;;;;;5074864;28;20249;-67
2022/01/23 07:00:21;;;;;;;27.27;16.58;;;5.20;99.90;;;;;;5074282;28;20621;-67
2022/01/23 07:02:47;;;;;;;26.30;16.58;;;5.20;99.90;;;;;;5074112;28;20294;-67
2022/01/23 07:05:14;;;;;;;29.00;17.63;;;5.40;99.90;;;;;;5073957;28;20229;-67
2022/01/23 07:07:41;;;;;;;29.40;18.10;;;5.50;99.90;;;;;;5073624;28;20614;-67
2022/01/23 07:10:09;;;;;;;27.45;17.05;;;5.50;99.90;;;;;;5074062;28;20199;-67
2022/01/23 07:12:36;;;;;;;28.50;17.45;;;5.60;99.90;;;;;;5073831;28;20297;-67
2022/01/23 07:15:04;;;;;;;27.38;17.38;;;5.50;99.90;;;;;;5074371;28;20289;-67
2022/01/23 07:17:31;;;;;;;28.65;16.85;;;5.60;99.90;;;;;;5073737;28;20257;-67
2022/01/23 07:19:58;;;;;;;26.20;17.30;;;5.80;99.90;;;;;;5073719;28;20290;-67
2022/01/23 07:22:24;;;;;;;26.02;17.50;;;5.90;99.90;;;;;;5073885;28;20290;-67
2022/01/23 07:24:52;;;;;;;28.88;16.98;;;6.00;99.90;;;;;;5073851;28;20229;-67
2022/01/23 07:27:21;;;;;;;24.58;15.95;;;5.90;99.90;;;;;;5073876;28;20592;-66
2022/01/23 07:29:48;;;;;;;28.48;17.45;;;6.00;99.90;;;;;;5073906;28;20294;-67
2022/01/23 07:32:17;;;;;;;27.90;17.08;;;6.10;99.90;;;;;;5073593;28;20230;-67
2022/01/23 07:34:43;;;;;;;28.98;16.33;;;6.00;99.90;;;;;;5073688;28;20218;-67
2022/01/23 07:37:12;;;;;;;26.95;17.55;;;5.90;99.90;;;;;;5073372;28;20293;-67
2022/01/23 07:39:39;;;;;;;24.55;16.83;;;5.80;99.90;;;;;;5073512;28;20238;-67
2022/01/23 07:42:07;;;;;;;29.70;17.02;;;5.90;99.90;;;;;;5073842;28;20545;-67
2022/01/23 07:44:34;;;;;;;31.55;19.38;;;5.70;99.90;;;;;;5073142;28;20233;-67
2022/01/23 07:47:01;;;;;;;29.60;18.85;;;5.50;99.90;;;;;;5073612;28;20294;-67
2022/01/23 07:49:29;;;;;;;29.77;18.65;;;5.30;99.90;;;;;;5073411;28;20203;-67
2022/01/23 07:51:56;;;;;;;34.65;19.40;;;5.30;99.90;;;;;;5073699;28;20213;-67
2022/01/23 07:54:23;;;;;;;31.02;18.83;;;5.20;99.90;;;;;;5073441;28;20226;-67
2022/01/23 07:56:50;;;;;;;28.05;19.13;;;5.10;99.90;;;;;;5073926;28;20207;-67
2022/01/23 07:59:17;;;;;;;36.58;19.75;;;5.10;99.90;;;;;;5073271;28;20598;-67
2022/01/23 08:01:44;;;;;;;30.10;18.27;;;5.10;99.90;;;;;;5073274;28;20199;-67
2022/01/23 08:04:11;;;;;;;34.22;19.30;;;5.20;99.90;;;;;;5073067;28;20218;-67
2022/01/23 08:06:42;;;;;;;33.40;19.60;;;5.20;99.90;;;;;;5073404;28;20203;-67
2022/01/23 08:09:10;;;;;;;33.70;20.17;;;5.30;99.90;;;;;;5073574;28;20611;-67
2022/01/23 08:11:37;;;;;;;33.25;20.85;;;5.30;99.90;;;;;;5072840;28;20210;-67
2022/01/23 08:14:04;;;;;;;39.28;20.80;;;5.20;99.90;;;;;;5073346;28;20219;-67
2022/01/23 08:16:30;;;;;;;29.67;18.08;;;5.20;99.90;;;;;;5073263;28;20226;-67
2022/01/23 08:18:57;;;;;;;31.17;18.17;;;5.30;99.90;;;;;;5073775;28;20213;-67
2022/01/23 08:21:24;;;;;;;31.80;18.40;;;5.30;99.90;;;;;;5076811;28;20207;-67
2022/01/23 08:23:54;;;;;;;31.77;18.38;;;5.40;99.90;;;;;;5076810;28;20561;-67
2022/01/23 08:26:22;;;;;;;28.55;18.20;;;5.50;99.90;;;;;;5076576;28;20210;-67
2022/01/23 08:28:49;;;;;;;28.42;17.90;;;5.40;99.90;;;;;;5076595;28;20590;-67
2022/01/23 08:31:16;;;;;;;28.33;19.40;;;5.60;99.90;;;;;;5076460;28;20208;-67
2022/01/23 08:33:43;;;;;;;29.30;17.85;;;5.60;99.90;;;;;;5076295;28;20583;-67
2022/01/23 08:36:10;;;;;;;29.08;18.83;;;5.80;99.90;;;;;;5076930;28;20202;-67
2022/01/23 08:38:37;;;;;;;31.48;18.13;;;5.80;99.90;;;;;;5076453;28;20230;-67
2022/01/23 08:43:52;;;;;;;29.13;19.23;;;6.00;99.90;;;;;;5050493;28;20685;-67
2022/01/23 08:46:19;;;;;;;29.77;18.60;;;6.10;99.90;;;;;;5076424;28;20678;-67
2022/01/23 08:48:46;;;;;;;31.42;18.90;;;6.00;99.90;;;;;;5076488;28;20293;-67
2022/01/23 08:51:13;;;;;;;31.08;19.02;;;6.00;99.90;;;;;;5075866;28;20297;-67
2022/01/23 08:53:40;;;;;;;29.23;18.70;;;6.00;99.90;;;;;;5075795;28;20222;-67
2022/01/23 08:56:09;;;;;;;31.92;19.63;;;6.10;99.90;;;;;;5076142;28;20234;-67
2022/01/23 08:58:35;;;;;;;27.67;17.25;;;6.10;99.90;;;;;;5076189;28;20257;-67
2022/01/23 09:01:02;;;;;;;29.60;19.17;;;6.20;99.90;;;;;;5075503;28;20213;-67
2022/01/23 09:03:29;;;;;;;28.08;19.17;;;6.30;99.90;;;;;;5076247;28;20223;-67
2022/01/23 09:05:56;;;;;;;32.90;18.90;;;6.40;99.90;;;;;;5075838;28;20659;-67
2022/01/23 09:08:23;;;;;;;32.30;20.73;;;6.40;99.90;;;;;;5075870;28;20209;-67
2022/01/23 09:10:55;;;;;;;29.83;19.67;;;6.40;99.90;;;;;;5075481;28;20289;-67
2022/01/23 09:13:32;;;;;;;30.27;20.55;;;6.50;99.90;;;;;;5075472;28;20222;-67
2022/01/23 09:16:00;;;;;;;27.38;18.90;;;6.50;99.90;;;;;;5076171;28;20183;-67
2022/01/23 09:18:27;;;;;;;28.60;19.27;;;6.70;99.90;;;;;;5075468;28;20537;-67
2022/01/23 09:20:53;;;;;;;30.98;18.88;;;6.80;99.90;;;;;;5075448;28;20210;-67
2022/01/23 09:23:20;;;;;;;29.90;20.00;;;7.00;99.90;;;;;;5075196;28;20682;-67
2022/01/23 09:25:47;;;;;;;28.67;18.10;;;6.90;99.90;;;;;;5075808;28;20232;-67
2022/01/23 09:28:14;;;;;;;27.35;17.90;;;7.00;99.90;;;;;;5075500;28;20202;-67
2022/01/23 09:30:45;;;;;;;33.13;18.95;;;7.10;99.90;;;;;;5075360;28;20546;-67
2022/01/23 09:33:12;;;;;;;30.27;20.27;;;7.00;99.90;;;;;;5075677;28;20242;-67
2022/01/23 09:35:39;;;;;;;31.23;19.65;;;6.90;99.90;;;;;;5075372;28;20195;-67
2022/01/23 09:38:05;;;;;;;32.40;18.65;;;7.00;99.90;;;;;;5075338;28;20548;-67
2022/01/23 09:40:33;;;;;;;29.05;19.50;;;7.10;99.90;;;;;;5075209;28;20210;-67
2022/01/23 09:43:06;;;;;;;25.50;17.50;;;7.10;99.90;;;;;;5075738;28;20222;-67
2022/01/23 09:45:33;;;;;;;30.30;19.15;;;7.20;99.90;;;;;;5075283;28;20254;-67
2022/01/23 09:48:02;;;;;;;27.95;19.45;;;7.20;99.90;;;;;;5075388;28;20198;-67
2022/01/23 09:50:30;;;;;;;27.63;19.73;;;7.30;99.90;;;;;;5075092;28;20213;-67
2022/01/23 09:52:58;;;;;;;28.73;20.30;;;7.30;99.90;;;;;;5074685;28;20317;-67
2022/01/23 09:55:29;;;;;;;32.20;21.25;;;7.20;99.90;;;;;;5074608;28;20213;-67
2022/01/23 09:57:57;;;;;;;30.45;20.83;;;7.30;99.90;;;;;;5074798;28;20215;-67
2022/01/23 10:00:27;;;;;;;29.88;18.75;;;7.30;99.90;;;;;;5074830;28;20565;-67
2022/01/23 10:02:54;;;;;;;31.77;19.98;;;7.30;99.90;;;;;;5074469;28;20313;-67
2022/01/23 10:05:22;;;;;;;28.02;19.38;;;7.40;99.90;;;;;;5074992;28;20310;-67
2022/01/23 10:07:49;;;;;;;32.42;20.63;;;7.40;99.90;;;;;;5074869;28;20198;-67
2022/01/23 10:10:21;;;;;;;25.10;19.05;;;7.40;99.90;;;;;;5074580;28;20210;-67
2022/01/23 10:12:50;;;;;;;26.75;19.17;;;7.40;99.90;;;;;;5074159;28;20199;-67
2022/01/23 10:15:17;;;;;;;27.20;17.55;;;7.50;99.90;;;;;;5074644;28;20548;-67
2022/01/23 10:17:45;;;;;;;26.38;17.23;;;7.60;99.90;;;;;;5074768;28;20202;-67
2022/01/23 10:20:13;;;;;;;26.15;17.63;;;7.60;99.90;;;;;;5074529;28;20294;-67
2022/01/23 10:22:45;;;;;;;22.80;15.10;;;7.70;99.90;;;;;;5074524;28;20205;-67
2022/01/23 10:25:14;;;;;;;24.60;16.02;;;7.80;99.90;;;;;;5074051;28;20226;-68
2022/01/23 10:28:01;;;;;;;24.92;16.45;;;7.70;99.90;;;;;;5074101;28;20203;-67
2022/01/23 10:30:31;;;;;;;20.02;14.50;;;7.60;99.90;;;;;;5074196;28;20595;-67
2022/01/23 10:33:04;;;;;;;16.63;13.45;;;7.70;99.90;;;;;;5073695;28;20223;-67
2022/01/23 10:35:32;;;;;;;17.35;11.98;;;7.60;99.90;;;;;;5074100;28;20206;-67
2022/01/23 10:38:12;;;;;;;20.52;14.00;;;7.70;99.90;;;;;;5074298;28;20221;-67
2022/01/23 10:40:48;;;;;;;21.88;15.18;;;7.80;99.90;;;;;;5073629;28;20629;-67
2022/01/23 10:48:56;;;;;;;26.85;17.40;;;7.80;99.90;;;;;;5074017;28;20264;-67
2022/01/23 10:51:26;;;;;;;28.20;17.90;;;7.70;99.90;;;;;;5074098;28;20202;-67
2022/01/23 10:54:03;;;;;;;24.83;16.85;;;7.70;99.90;;;;;;5074054;28;20685;-67
2022/01/23 10:56:31;;;;;;;23.95;16.77;;;7.70;99.90;;;;;;5073697;28;20198;-67
2022/01/23 10:59:00;;;;;;;21.48;15.82;;;7.70;99.90;;;;;;5073746;28;20320;-67
2022/01/23 11:01:28;;;;;;;25.80;17.20;;;7.80;99.90;;;;;;5073812;28;20297;-67
2022/01/23 11:04:07;;;;;;;23.38;16.30;;;7.80;99.90;;;;;;5073426;28;20229;-67
2022/01/23 11:06:50;;;;;;;26.52;17.33;;;7.70;99.90;;;;;;5074453;28;20245;-67
2022/01/23 11:09:18;;;;;;;25.25;16.75;;;7.80;99.90;;;;;;5073870;28;20649;-67
2022/01/23 11:11:48;;;;;;;22.10;15.75;;;7.80;99.90;;;;;;5073783;28;20578;-67
2022/01/23 11:19:46;;;;;;;24.30;17.17;;;7.80;99.90;;;;;;5073705;28;20320;-67
2022/01/23 11:22:19;;;;;;;25.80;16.85;;;7.90;99.90;;;;;;5073896;28;20209;-67
2022/01/23 11:24:48;;;;;;;21.95;16.48;;;7.80;99.90;;;;;;5074132;28;20249;-67
2022/01/23 11:27:18;;;;;;;26.67;17.88;;;7.90;99.90;;;;;;5073982;28;20302;-67
2022/01/23 11:30:01;;;;;;;26.35;18.45;;;7.90;99.90;;;;;;5073512;28;20289;-67
2022/01/23 11:32:34;;;;;;;26.45;17.73;;;7.60;99.90;;;;;;5074038;28;20310;-67
2022/01/23 11:35:07;;;;;;;25.20;16.65;;;7.40;99.90;;;;;;5073910;28;20187;-67
2022/01/23 11:37:35;;;;;;;22.83;16.48;;;7.50;99.90;;;;;;5073466;28;20207;-67
2022/01/23 11:40:22;;;;;;;24.45;16.88;;;7.70;99.90;;;;;;5072984;28;20654;-67
2022/01/23 11:54:15;;;;;;;23.50;15.50;;;8.10;99.90;;;;;;5074045;28;20222;-67
2022/01/23 11:56:46;;;;;;;23.88;16.38;;;8.20;99.90;;;;;;5077452;28;20183;-67
2022/01/23 11:59:33;;;;;;;20.10;15.40;;;8.20;99.90;;;;;;5076946;28;20790;-67
2022/01/23 12:02:25;;;;;;;20.30;14.43;;;8.40;99.90;;;;;;5076972;28;20760;-67
2022/01/23 12:05:32;;;;;;;18.70;13.35;;;8.40;99.90;;;;;;5076644;28;20284;-67
2022/01/23 12:08:17;;;;;;;19.77;13.77;;;8.50;99.90;;;;;;5076749;28;20206;-67
2022/01/23 12:17:31;;;;;;;17.77;13.43;;;8.40;99.90;;;;;;5077301;28;20198;-67
2022/01/23 12:19:59;;;;;;;17.42;13.48;;;8.40;99.90;;;;;;5063777;28;20237;-67
2022/01/23 12:22:51;;;;;;;20.35;13.95;;;8.40;99.90;;;;;;5076610;28;20657;-67
2022/01/23 12:25:28;;;;;;;19.38;13.52;;;8.30;99.90;;;;;;5066632;28;20696;-67
2022/01/23 12:28:21;;;;;;;21.60;13.52;;;8.20;99.90;;;;;;5077052;28;20222;-67
2022/01/23 12:30:53;;;;;;;19.42;13.90;;;8.20;99.90;;;;;;5076728;28;20219;-67
2022/01/23 12:33:47;;;;;;;17.52;12.93;;;8.10;99.90;;;;;;5076857;28;20227;-67
2022/01/23 12:36:24;;;;;;;18.73;13.25;;;8.10;99.90;;;;;;5077031;28;20226;-67
2022/01/23 12:38:54;;;;;;;20.52;14.00;;;8.00;99.90;;;;;;5076447;28;20288;-67
2022/01/23 12:41:27;;;;;;;15.95;12.23;;;8.00;99.90;;;;;;5076622;28;20209;-67
2022/01/23 12:43:57;;;;;;;20.42;12.90;;;7.90;99.90;;;;;;5076537;28;20301;-67
2022/01/23 12:46:38;;;;;;;18.50;13.18;;;8.00;99.90;;;;;;5076575;28;20677;-67
2022/01/23 12:49:21;;;;;;;13.35;9.98;;;8.20;99.90;;;;;;5076030;28;20206;-67
2022/01/23 12:51:49;;;;;;;14.13;10.20;;;8.20;99.90;;;;;;5076133;28;20203;-67
2022/01/23 12:54:29;;;;;;;13.48;10.32;;;8.30;99.90;;;;;;5075975;28;20226;-67
2022/01/23 12:56:57;;;;;;;14.95;10.15;;;8.20;99.90;;;;;;5076488;28;20213;-67
2022/01/23 12:59:31;;;;;;;14.30;10.35;;;8.30;99.90;;;;;;5075927;28;20203;-67
2022/01/23 13:02:04;;;;;;;15.25;11.25;;;8.30;99.90;;;;;;5075865;28;20244;-67
2022/01/23 13:04:37;;;;;;;15.75;11.90;;;8.30;99.90;;;;;;5075955;28;20230;-67
2022/01/23 13:07:12;;;;;;;18.98;11.75;;;8.20;99.90;;;;;;5076093;28;20276;-67
2022/01/23 13:09:46;;;;;;;16.50;11.82;;;8.30;99.90;;;;;;5075555;28;20236;-67
2022/01/23 13:12:25;;;;;;;15.35;11.63;;;8.30;99.90;;;;;;5075606;28;20202;-67
2022/01/23 13:15:00;;;;;;;18.15;11.63;;;8.40;99.90;;;;;;5075989;28;20219;-67
2022/01/23 13:26:34;;;;;;;8.95;6.43;;;8.30;99.90;;;;;;5075424;28;20217;-67
2022/01/23 13:29:53;;;;;;;11.82;8.00;;;8.10;99.90;;;;;;5075282;28;20660;-67
2022/01/23 13:32:12;;;;;;;5.60;4.35;;;7.80;99.90;;;;;;5075117;28;20202;-67
2022/01/23 13:34:42;;;;;;;5.80;3.90;;;7.70;99.90;;;;;;5075040;28;20273;-67
2022/01/23 13:37:12;;;;;;;9.73;7.15;;;7.70;99.90;;;;;;5075223;28;20199;-67
2022/01/23 13:39:44;;;;;;;10.20;7.50;;;7.80;99.90;;;;;;5075191;28;20614;-67
2022/01/23 13:42:34;;;;;;;8.57;6.30;;;7.90;99.90;;;;;;5075255;28;20202;-67
2022/01/23 13:48:29;;;;;;;6.68;5.55;;;8.10;99.90;;;;;;5075053;28;20205;-67
2022/01/23 13:54:03;;;;;;;5.03;3.70;;;7.90;99.90;;;;;;5074794;28;20215;-68
2022/01/23 13:59:23;;;;;;;5.88;4.00;;;8.10;99.90;;;;;;5075159;28;20276;-67
2022/01/23 14:01:54;;;;;;;4.60;3.53;;;8.10;99.90;;;;;;5074504;28;20223;-67
2022/01/23 14:04:22;;;;;;;5.78;4.28;;;8.10;99.90;;;;;;5074748;28;20218;-67
2022/01/23 14:06:51;;;;;;;5.97;4.25;;;8.20;99.90;;;;;;5074573;28;20226;-67
2022/01/23 14:09:20;;;;;;;5.10;3.80;;;8.30;99.90;;;;;;5074805;28;20289;-67
2022/01/23 14:11:48;;;;;;;5.60;4.38;;;8.40;99.90;;;;;;5074651;28;20202;-67
2022/01/23 14:14:16;;;;;;;6.20;4.35;;;8.30;99.90;;;;;;5074171;28;20223;-67
2022/01/23 14:16:44;;;;;;;5.60;3.72;;;8.30;99.90;;;;;;5073676;28;20205;-67
2022/01/23 14:19:19;;;;;;;5.80;4.90;;;8.20;99.90;;;;;;5074323;28;20213;-67
2022/01/23 14:21:48;;;;;;;10.38;6.93;;;8.10;99.90;;;;;;5074339;28;20209;-67
2022/01/23 14:24:24;;;;;;;5.25;4.10;;;8.10;99.90;;;;;;5074759;28;20227;-67
2022/01/23 14:26:59;;;;;;;5.22;3.70;;;8.10;99.90;;;;;;5074214;28;20229;-67
2022/01/23 14:29:26;;;;;;;4.38;3.40;;;8.10;99.90;;;;;;5074287;28;20212;-67
2022/01/23 14:32:11;;;;;;;4.57;3.70;;;8.10;99.90;;;;;;5074273;28;20203;-66
2022/01/23 14:34:38;;;;;;;4.53;3.63;;;7.90;99.40;;;;;;5074451;28;20226;-67
2022/01/23 14:37:06;;;;;;;3.80;3.50;;;7.90;99.90;;;;;;5074117;28;20227;-67
2022/01/23 14:39:35;;;;;;;5.40;3.90;;;7.70;99.90;;;;;;5074058;28;20251;-66
2022/01/23 14:42:18;;;;;;;4.70;4.05;;;7.60;99.50;;;;;;5074171;28;20202;-67
2022/01/23 14:44:45;;;;;;;5.28;3.75;;;7.50;99.90;;;;;;5073640;28;20309;-67
2022/01/23 14:47:13;;;;;;;4.20;3.80;;;7.40;99.90;;;;;;5074196;28;20229;-66
2022/01/23 14:49:43;;;;;;;4.32;3.40;;;7.50;99.90;;;;;;5073675;28;20209;-67
2022/01/23 14:52:13;;;;;;;3.55;3.17;;;7.50;99.90;;;;;;5074080;28;20202;-67
2022/01/23 14:54:42;;;;;;;4.35;3.35;;;7.60;99.90;;;;;;5073697;28;20269;-67
2022/01/23 14:57:16;;;;;;;4.03;3.65;;;7.60;99.90;;;;;;5074143;28;20203;-67
2022/01/23 14:59:44;;;;;;;5.82;4.80;;;7.70;99.90;;;;;;5074159;28;20271;-67
2022/01/23 15:02:11;;;;;;;4.90;3.90;;;7.60;99.60;;;;;;5074049;28;20199;-66
2022/01/23 15:04:46;;;;;;;4.72;3.75;;;7.60;99.90;;;;;;5074542;28;20281;-66
2022/01/23 15:07:16;;;;;;;5.18;4.10;;;7.50;99.90;;;;;;5073454;28;20229;-67
2022/01/23 15:09:47;;;;;;;4.90;3.42;;;7.50;99.90;;;;;;5073780;28;20641;-67
2022/01/23 15:12:14;;;;;;;6.15;4.20;;;7.60;99.90;;;;;;5074496;28;20210;-66
2022/01/23 15:14:42;;;;;;;4.80;3.97;;;7.40;99.90;;;;;;5074243;28;20223;-66
2022/01/23 15:17:09;;;;;;;4.53;4.05;;;7.50;99.90;;;;;;5073989;28;20199;-67
2022/01/23 15:19:36;;;;;;;7.13;4.78;;;7.40;99.90;;;;;;5073748;28;20710;-67
2022/01/23 15:22:03;;;;;;;6.93;5.07;;;7.50;99.90;;;;;;5073812;28;20203;-66
2022/01/23 15:24:30;;;;;;;5.18;4.25;;;7.50;99.90;;;;;;5073208;28;20222;-67
2022/01/23 15:26:58;;;;;;;6.32;5.07;;;7.60;99.90;;;;;;5074046;28;20309;-67
2022/01/23 15:29:25;;;;;;;5.80;4.20;;;7.50;99.90;;;;;;5076616;28;20203;-67
2022/01/23 15:31:52;;;;;;;4.80;4.32;;;7.50;99.90;;;;;;5077705;28;20212;-67
2022/01/23 15:34:19;;;;;;;5.32;4.45;;;7.50;99.90;;;;;;5077887;28;20228;-66
2022/01/23 15:36:47;;;;;;;6.38;4.57;;;7.60;99.90;;;;;;5077964;28;20203;-67
2022/01/23 15:39:15;;;;;;;5.18;3.83;;;7.60;99.90;;;;;;5077556;28;20253;-67
2022/01/23 15:41:42;;;;;;;5.03;4.13;;;7.60;99.90;;;;;;5077321;28;20564;-67
2022/01/23 15:44:10;;;;;;;5.82;4.70;;;7.50;99.90;;;;;;5077307;28;20222;-67
2022/01/23 15:46:37;;;;;;;4.55;3.95;;;7.30;99.90;;;;;;5077586;28;20226;-67
2022/01/23 15:49:04;;;;;;;5.40;4.32;;;7.30;99.90;;;;;;5077916;28;20241;-68
2022/01/23 15:51:31;;;;;;;5.65;5.00;;;7.20;99.90;;;;;;5077625;28;20207;-66